sensor_id;sensor_type;location;lat;lon;timestamp;pressure;altitude;pressure_sealevel;temperature;humidity
36454;BME280;22478;51.740;-1.314;2023-12-29T00:01:34;99227.93;;;2.78;100.00
36454;BME280;22478;51.740;-1.314;2023-12-29T00:04:01;99223.96;;;2.71;100.00
36454;BME280;22478;51.740;-1.314;2023-12-29T00:06:28;99224.19;;;2.47;100.00
36454;BME280;22478;51.740;-1.314;2023-12-29T00:08:55;99212.28;;;5.07;100.00
36454;BME280;22478;51.740;-1.314;2023-12-29T00:11:23;99220.69;;;3.76;100.00
36454;BME280;22478;51.740;-1.314;2023-12-29T00:13:50;99229.37;;;2.02;100.00
36454;BME280;22478;51.740;-1.314;2023-12-29T00:16:17;99223.35;;;1.29;100.00
36454;BME280;22478;51.740;-1.314;2023-12-29T00:18:44;99217.82;;;2.11;100.00
36454;BME280;22478;51.740;-1.314;2023-12-29T00:21:11;99214.20;;;2.78;100.00
36454;BME280;22478;51.740;-1.314;2023-12-29T00:23:38;99212.15;;;3.53;100.00
36454;BME280;22478;51.740;-1.314;2023-12-29T00:26:05;99218.97;;;0.97;100.00
36454;BME280;22478;51.740;-1.314;2023-12-29T00:28:33;99219.61;;;3.44;100.00
36454;BME280;22478;51.740;-1.314;2023-12-29T00:31:00;99220.20;;;2.24;100.00
36454;BME280;22478;51.740;-1.314;2023-12-29T00:33:27;99231.79;;;3.31;100.00
36454;BME280;22478;51.740;-1.314;2023-12-29T00:35:55;99246.58;;;3.52;100.00
36454;BME280;22478;51.740;-1.314;2023-12-29T00:38:22;99237.58;;;2.92;100.00
36454;BME280;22478;51.740;-1.314;2023-12-29T00:40:49;99244.09;;;3.16;100.00
36454;BME280;22478;51.740;-1.314;2023-12-29T00:43:16;99246.07;;;3.41;100.00
36454;BME280;22478;51.740;-1.314;2023-12-29T00:45:43;99231.84;;;3.35;100.00
36454;BME280;22478;51.740;-1.314;2023-12-29T00:48:10;99223.35;;;3.24;100.00
36454;BME280;22478;51.740;-1.314;2023-12-29T00:50:37;99220.19;;;1.83;100.00
36454;BME280;22478;51.740;-1.314;2023-12-29T00:53:04;99214.00;;;2.68;100.00
36454;BME280;22478;51.740;-1.314;2023-12-29T00:55:31;99226.00;;;2.19;100.00
36454;BME280;22478;51.740;-1.314;2023-12-29T00:57:59;99218.19;;;3.90;100.00
36454;BME280;22478;51.740;-1.314;2023-12-29T01:00:26;99210.13;;;4.68;100.00
36454;BME280;22478;51.740;-1.314;2023-12-29T01:02:54;99207.27;;;4.11;100.00
36454;BME280;22478;51.740;-1.314;2023-12-29T01:05:22;99211.62;;;3.24;100.00
36454;BME280;22478;51.740;-1.314;2023-12-29T01:07:50;99210.30;;;2.39;100.00
36454;BME280;22478;51.740;-1.314;2023-12-29T01:10:17;99209.63;;;4.58;100.00
36454;BME280;22478;51.740;-1.314;2023-12-29T01:12:44;99212.43;;;3.80;100.00
36454;BME280;22478;51.740;-1.314;2023-12-29T01:15:11;99219.27;;;2.60;100.00
36454;BME280;22478;51.740;-1.314;2023-12-29T01:17:38;99216.75;;;4.20;100.00
36454;BME280;22478;51.740;-1.314;2023-12-29T01:20:06;99210.84;;;3.71;100.00
36454;BME280;22478;51.740;-1.314;2023-12-29T01:22:33;99204.91;;;3.84;100.00
36454;BME280;22478;51.740;-1.314;2023-12-29T01:25:00;99201.73;;;3.32;100.00
36454;BME280;22478;51.740;-1.314;2023-12-29T01:27:28;99196.61;;;4.27;100.00
36454;BME280;22478;51.740;-1.314;2023-12-29T01:29:56;99190.65;;;4.37;100.00
36454;BME280;22478;51.740;-1.314;2023-12-29T01:32:24;99200.23;;;1.83;100.00
36454;BME280;22478;51.740;-1.314;2023-12-29T01:34:52;99192.64;;;1.70;100.00
36454;BME280;22478;51.740;-1.314;2023-12-29T01:37:19;99194.32;;;2.51;100.00
36454;BME280;22478;51.740;-1.314;2023-12-29T01:39:46;99188.62;;;3.74;100.00
36454;BME280;22478;51.740;-1.314;2023-12-29T01:42:13;99191.27;;;1.48;100.00
36454;BME280;22478;51.740;-1.314;2023-12-29T01:44:40;99189.68;;;2.25;100.00
36454;BME280;22478;51.740;-1.314;2023-12-29T01:47:13;99191.77;;;3.74;100.00
36454;BME280;22478;51.740;-1.314;2023-12-29T01:49:40;99187.25;;;4.82;100.00
36454;BME280;22478;51.740;-1.314;2023-12-29T01:52:08;99184.47;;;3.32;100.00
36454;BME280;22478;51.740;-1.314;2023-12-29T01:54:36;99194.74;;;4.58;100.00
36454;BME280;22478;51.740;-1.314;2023-12-29T01:57:04;99191.88;;;3.24;100.00
36454;BME280;22478;51.740;-1.314;2023-12-29T01:59:32;99202.13;;;4.83;100.00
36454;BME280;22478;51.740;-1.314;2023-12-29T02:01:59;99199.09;;;3.83;100.00
36454;BME280;22478;51.740;-1.314;2023-12-29T02:04:27;99202.18;;;2.25;100.00
36454;BME280;22478;51.740;-1.314;2023-12-29T02:06:55;99186.87;;;4.03;100.00
36454;BME280;22478;51.740;-1.314;2023-12-29T02:09:22;99192.52;;;2.38;100.00
36454;BME280;22478;51.740;-1.314;2023-12-29T02:11:49;99189.70;;;3.37;100.00
36454;BME280;22478;51.740;-1.314;2023-12-29T02:14:17;99204.41;;;2.25;100.00
36454;BME280;22478;51.740;-1.314;2023-12-29T02:16:49;99202.26;;;2.90;100.00
36454;BME280;22478;51.740;-1.314;2023-12-29T02:19:30;99189.02;;;4.06;100.00
36454;BME280;22478;51.740;-1.314;2023-12-29T02:22:03;99198.59;;;1.98;100.00
36454;BME280;22478;51.740;-1.314;2023-12-29T02:24:31;99191.05;;;3.17;100.00
36454;BME280;22478;51.740;-1.314;2023-12-29T02:27:07;99195.25;;;1.88;100.00
36454;BME280;22478;51.740;-1.314;2023-12-29T02:29:39;99219.94;;;3.01;100.00
36454;BME280;22478;51.740;-1.314;2023-12-29T02:32:11;99226.50;;;1.23;100.00
36454;BME280;22478;51.740;-1.314;2023-12-29T02:34:41;99257.95;;;0.70;100.00
36454;BME280;22478;51.740;-1.314;2023-12-29T02:37:11;99270.90;;;-0.07;100.00
36454;BME280;22478;51.740;-1.314;2023-12-29T02:39:39;99249.92;;;-0.27;100.00
36454;BME280;22478;51.740;-1.314;2023-12-29T02:42:07;99240.37;;;1.69;100.00
36454;BME280;22478;51.740;-1.314;2023-12-29T02:44:34;99228.10;;;1.43;100.00
36454;BME280;22478;51.740;-1.314;2023-12-29T02:47:01;99224.51;;;2.48;100.00
36454;BME280;22478;51.740;-1.314;2023-12-29T02:49:28;99217.01;;;3.06;100.00
36454;BME280;22478;51.740;-1.314;2023-12-29T02:51:55;99214.24;;;3.69;100.00
36454;BME280;22478;51.740;-1.314;2023-12-29T02:54:23;99203.35;;;3.09;100.00
36454;BME280;22478;51.740;-1.314;2023-12-29T02:56:50;99202.09;;;3.71;100.00
36454;BME280;22478;51.740;-1.314;2023-12-29T02:59:17;99203.46;;;3.27;100.00
36454;BME280;22478;51.740;-1.314;2023-12-29T03:01:45;99207.50;;;3.68;100.00
36454;BME280;22478;51.740;-1.314;2023-12-29T03:04:12;99209.91;;;3.00;100.00
36454;BME280;22478;51.740;-1.314;2023-12-29T03:06:40;99191.85;;;3.34;100.00
36454;BME280;22478;51.740;-1.314;2023-12-29T03:09:07;99200.88;;;2.53;100.00
36454;BME280;22478;51.740;-1.314;2023-12-29T03:11:34;99202.93;;;2.31;100.00
36454;BME280;22478;51.740;-1.314;2023-12-29T03:14:01;99211.28;;;2.70;100.00
36454;BME280;22478;51.740;-1.314;2023-12-29T03:16:29;99207.92;;;2.22;100.00
36454;BME280;22478;51.740;-1.314;2023-12-29T03:18:56;99203.11;;;1.70;100.00
36454;BME280;22478;51.740;-1.314;2023-12-29T03:21:23;99181.51;;;4.53;100.00
36454;BME280;22478;51.740;-1.314;2023-12-29T03:23:50;99193.23;;;2.03;100.00
36454;BME280;22478;51.740;-1.314;2023-12-29T03:26:18;99182.69;;;4.79;100.00
36454;BME280;22478;51.740;-1.314;2023-12-29T03:28:45;99183.06;;;3.38;100.00
36454;BME280;22478;51.740;-1.314;2023-12-29T03:31:12;99188.12;;;3.37;100.00
36454;BME280;22478;51.740;-1.314;2023-12-29T03:33:39;99183.65;;;3.74;100.00
36454;BME280;22478;51.740;-1.314;2023-12-29T03:36:06;99179.59;;;3.06;100.00
36454;BME280;22478;51.740;-1.314;2023-12-29T03:38:36;99186.40;;;1.51;100.00
36454;BME280;22478;51.740;-1.314;2023-12-29T03:41:03;99180.16;;;2.74;100.00
36454;BME280;22478;51.740;-1.314;2023-12-29T03:43:31;99172.96;;;2.91;100.00
36454;BME280;22478;51.740;-1.314;2023-12-29T03:45:58;99170.70;;;3.42;100.00
36454;BME280;22478;51.740;-1.314;2023-12-29T03:48:25;99164.49;;;2.04;100.00
36454;BME280;22478;51.740;-1.314;2023-12-29T03:50:53;99160.57;;;2.80;100.00
36454;BME280;22478;51.740;-1.314;2023-12-29T03:53:20;99141.53;;;3.57;100.00
36454;BME280;22478;51.740;-1.314;2023-12-29T03:55:47;99134.30;;;2.38;100.00
36454;BME280;22478;51.740;-1.314;2023-12-29T03:58:13;99128.01;;;3.62;100.00
36454;BME280;22478;51.740;-1.314;2023-12-29T04:00:40;99130.90;;;3.73;100.00
36454;BME280;22478;51.740;-1.314;2023-12-29T04:03:08;99137.50;;;1.88;100.00
36454;BME280;22478;51.740;-1.314;2023-12-29T04:05:35;99136.72;;;3.17;100.00
36454;BME280;22478;51.740;-1.314;2023-12-29T04:08:02;99144.13;;;2.08;100.00
36454;BME280;22478;51.740;-1.314;2023-12-29T04:10:29;99145.30;;;2.68;100.00
36454;BME280;22478;51.740;-1.314;2023-12-29T04:12:56;99150.14;;;1.36;100.00
36454;BME280;22478;51.740;-1.314;2023-12-29T04:15:23;99154.40;;;1.49;100.00
36454;BME280;22478;51.740;-1.314;2023-12-29T04:17:51;99151.62;;;2.57;100.00
36454;BME280;22478;51.740;-1.314;2023-12-29T04:20:18;99144.17;;;4.28;100.00
36454;BME280;22478;51.740;-1.314;2023-12-29T04:22:46;99152.38;;;3.13;100.00
36454;BME280;22478;51.740;-1.314;2023-12-29T04:25:14;99151.66;;;2.33;100.00
36454;BME280;22478;51.740;-1.314;2023-12-29T04:27:41;99150.33;;;1.58;100.00
36454;BME280;22478;51.740;-1.314;2023-12-29T04:30:09;99153.48;;;2.06;100.00
36454;BME280;22478;51.740;-1.314;2023-12-29T04:32:36;99163.49;;;1.20;100.00
36454;BME280;22478;51.740;-1.314;2023-12-29T04:35:04;99153.56;;;1.18;100.00
36454;BME280;22478;51.740;-1.314;2023-12-29T04:37:32;99151.53;;;1.81;100.00
36454;BME280;22478;51.740;-1.314;2023-12-29T04:39:59;99145.28;;;2.75;100.00
36454;BME280;22478;51.740;-1.314;2023-12-29T04:42:26;99147.16;;;1.96;100.00
36454;BME280;22478;51.740;-1.314;2023-12-29T04:44:53;99142.84;;;3.12;100.00
36454;BME280;22478;51.740;-1.314;2023-12-29T04:47:20;99140.13;;;4.02;100.00
36454;BME280;22478;51.740;-1.314;2023-12-29T04:49:47;99153.57;;;1.21;100.00
36454;BME280;22478;51.740;-1.314;2023-12-29T04:52:14;99158.73;;;3.42;100.00
36454;BME280;22478;51.740;-1.314;2023-12-29T04:54:42;99161.63;;;2.53;100.00
36454;BME280;22478;51.740;-1.314;2023-12-29T04:57:09;99156.88;;;2.59;100.00
36454;BME280;22478;51.740;-1.314;2023-12-29T04:59:36;99158.54;;;2.97;100.00
36454;BME280;22478;51.740;-1.314;2023-12-29T05:02:03;99163.10;;;1.54;100.00
36454;BME280;22478;51.740;-1.314;2023-12-29T05:04:31;99153.27;;;2.64;100.00
36454;BME280;22478;51.740;-1.314;2023-12-29T05:06:58;99162.09;;;0.41;100.00
36454;BME280;22478;51.740;-1.314;2023-12-29T05:09:25;99174.85;;;1.21;100.00
36454;BME280;22478;51.740;-1.314;2023-12-29T05:11:52;99168.66;;;3.35;100.00
36454;BME280;22478;51.740;-1.314;2023-12-29T05:14:19;99169.76;;;3.38;100.00
36454;BME280;22478;51.740;-1.314;2023-12-29T05:16:46;99166.80;;;2.74;100.00
36454;BME280;22478;51.740;-1.314;2023-12-29T05:19:13;99174.72;;;1.47;100.00
36454;BME280;22478;51.740;-1.314;2023-12-29T05:21:40;99165.90;;;3.89;100.00
36454;BME280;22478;51.740;-1.314;2023-12-29T05:24:07;99175.60;;;1.95;100.00
36454;BME280;22478;51.740;-1.314;2023-12-29T05:26:34;99174.29;;;2.41;100.00
36454;BME280;22478;51.740;-1.314;2023-12-29T05:29:02;99173.63;;;1.59;100.00
36454;BME280;22478;51.740;-1.314;2023-12-29T05:31:30;99185.46;;;1.11;100.00
36454;BME280;22478;51.740;-1.314;2023-12-29T05:33:57;99173.39;;;2.13;100.00
36454;BME280;22478;51.740;-1.314;2023-12-29T05:36:24;99186.87;;;1.54;100.00
36454;BME280;22478;51.740;-1.314;2023-12-29T05:38:51;99184.93;;;1.74;100.00
36454;BME280;22478;51.740;-1.314;2023-12-29T05:41:19;99190.39;;;2.05;100.00
36454;BME280;22478;51.740;-1.314;2023-12-29T05:43:46;99200.41;;;2.94;100.00
36454;BME280;22478;51.740;-1.314;2023-12-29T05:46:13;99203.32;;;1.99;100.00
36454;BME280;22478;51.740;-1.314;2023-12-29T05:48:41;99199.60;;;2.15;100.00
36454;BME280;22478;51.740;-1.314;2023-12-29T05:51:08;99217.98;;;0.29;100.00
36454;BME280;22478;51.740;-1.314;2023-12-29T05:53:36;99213.81;;;1.63;100.00
36454;BME280;22478;51.740;-1.314;2023-12-29T05:56:04;99216.88;;;0.23;100.00
36454;BME280;22478;51.740;-1.314;2023-12-29T05:58:31;99218.64;;;0.61;100.00
36454;BME280;22478;51.740;-1.314;2023-12-29T06:00:58;99227.81;;;1.56;100.00
36454;BME280;22478;51.740;-1.314;2023-12-29T06:03:25;99222.70;;;0.74;100.00
36454;BME280;22478;51.740;-1.314;2023-12-29T06:05:52;99220.69;;;0.26;100.00
36454;BME280;22478;51.740;-1.314;2023-12-29T06:08:19;99211.39;;;0.44;100.00
36454;BME280;22478;51.740;-1.314;2023-12-29T06:10:46;99211.57;;;1.44;100.00
36454;BME280;22478;51.740;-1.314;2023-12-29T06:13:13;99207.29;;;2.04;100.00
36454;BME280;22478;51.740;-1.314;2023-12-29T06:15:41;99205.59;;;2.55;100.00
36454;BME280;22478;51.740;-1.314;2023-12-29T06:18:08;99207.67;;;3.69;100.00
36454;BME280;22478;51.740;-1.314;2023-12-29T06:20:35;99209.90;;;2.00;100.00
36454;BME280;22478;51.740;-1.314;2023-12-29T06:23:02;99201.11;;;2.61;100.00
36454;BME280;22478;51.740;-1.314;2023-12-29T06:25:29;99218.13;;;1.12;100.00
36454;BME280;22478;51.740;-1.314;2023-12-29T06:27:56;99216.80;;;1.07;100.00
36454;BME280;22478;51.740;-1.314;2023-12-29T06:30:23;99221.50;;;0.61;100.00
36454;BME280;22478;51.740;-1.314;2023-12-29T06:32:51;99219.25;;;1.57;100.00
36454;BME280;22478;51.740;-1.314;2023-12-29T06:35:18;99225.62;;;0.59;100.00
36454;BME280;22478;51.740;-1.314;2023-12-29T06:37:45;99220.41;;;2.44;100.00
36454;BME280;22478;51.740;-1.314;2023-12-29T06:40:12;99221.41;;;3.36;100.00
36454;BME280;22478;51.740;-1.314;2023-12-29T06:42:39;99230.29;;;2.27;100.00
36454;BME280;22478;51.740;-1.314;2023-12-29T06:45:07;99219.24;;;4.30;100.00
36454;BME280;22478;51.740;-1.314;2023-12-29T06:47:34;99225.15;;;2.92;100.00
36454;BME280;22478;51.740;-1.314;2023-12-29T06:50:01;99230.64;;;2.32;100.00
36454;BME280;22478;51.740;-1.314;2023-12-29T06:52:28;99227.50;;;2.23;100.00
36454;BME280;22478;51.740;-1.314;2023-12-29T06:54:56;99231.01;;;2.57;100.00
36454;BME280;22478;51.740;-1.314;2023-12-29T06:57:23;99226.47;;;2.31;100.00
36454;BME280;22478;51.740;-1.314;2023-12-29T06:59:50;99235.64;;;4.55;100.00
36454;BME280;22478;51.740;-1.314;2023-12-29T07:02:17;99243.74;;;2.17;100.00
36454;BME280;22478;51.740;-1.314;2023-12-29T07:04:44;99234.74;;;3.73;100.00
36454;BME280;22478;51.740;-1.314;2023-12-29T07:07:12;99250.01;;;1.40;100.00
36454;BME280;22478;51.740;-1.314;2023-12-29T07:09:39;99251.82;;;2.38;100.00
36454;BME280;22478;51.740;-1.314;2023-12-29T07:12:07;99254.19;;;2.11;100.00
36454;BME280;22478;51.740;-1.314;2023-12-29T07:14:34;99254.56;;;0.80;100.00
36454;BME280;22478;51.740;-1.314;2023-12-29T07:17:01;99245.61;;;2.64;100.00
36454;BME280;22478;51.740;-1.314;2023-12-29T07:19:28;99244.12;;;3.89;100.00
36454;BME280;22478;51.740;-1.314;2023-12-29T07:21:56;99248.84;;;1.35;100.00
36454;BME280;22478;51.740;-1.314;2023-12-29T07:24:23;99241.76;;;2.21;100.00
36454;BME280;22478;51.740;-1.314;2023-12-29T07:26:50;99246.65;;;2.42;100.00
36454;BME280;22478;51.740;-1.314;2023-12-29T07:29:17;99244.06;;;1.07;100.00
36454;BME280;22478;51.740;-1.314;2023-12-29T07:31:44;99237.10;;;2.72;100.00
36454;BME280;22478;51.740;-1.314;2023-12-29T07:34:12;99238.25;;;2.19;100.00
36454;BME280;22478;51.740;-1.314;2023-12-29T07:36:40;99245.94;;;2.13;100.00
36454;BME280;22478;51.740;-1.314;2023-12-29T07:39:07;99241.60;;;1.32;100.00
36454;BME280;22478;51.740;-1.314;2023-12-29T07:41:35;99250.11;;;1.23;100.00
36454;BME280;22478;51.740;-1.314;2023-12-29T07:44:05;99239.03;;;2.66;100.00
36454;BME280;22478;51.740;-1.314;2023-12-29T07:46:33;99253.91;;;1.48;100.00
36454;BME280;22478;51.740;-1.314;2023-12-29T07:49:00;99253.98;;;0.59;100.00
36454;BME280;22478;51.740;-1.314;2023-12-29T07:51:27;99250.33;;;2.34;100.00
36454;BME280;22478;51.740;-1.314;2023-12-29T07:53:55;99252.40;;;0.80;100.00
36454;BME280;22478;51.740;-1.314;2023-12-29T07:56:22;99254.67;;;2.13;100.00
36454;BME280;22478;51.740;-1.314;2023-12-29T07:58:49;99251.32;;;3.01;100.00
36454;BME280;22478;51.740;-1.314;2023-12-29T08:01:16;99255.56;;;1.36;100.00
36454;BME280;22478;51.740;-1.314;2023-12-29T08:03:43;99250.09;;;2.90;100.00
36454;BME280;22478;51.740;-1.314;2023-12-29T08:06:11;99263.33;;;0.94;100.00
36454;BME280;22478;51.740;-1.314;2023-12-29T08:08:38;99264.12;;;1.77;100.00
36454;BME280;22478;51.740;-1.314;2023-12-29T08:11:05;99271.30;;;1.81;100.00
36454;BME280;22478;51.740;-1.314;2023-12-29T08:13:32;99268.57;;;1.98;100.00
36454;BME280;22478;51.740;-1.314;2023-12-29T08:15:59;99265.23;;;2.25;100.00
36454;BME280;22478;51.740;-1.314;2023-12-29T08:18:26;99266.64;;;2.91;100.00
36454;BME280;22478;51.740;-1.314;2023-12-29T08:20:54;99271.25;;;1.70;100.00
36454;BME280;22478;51.740;-1.314;2023-12-29T08:23:21;99269.83;;;3.49;100.00
36454;BME280;22478;51.740;-1.314;2023-12-29T08:25:48;99275.24;;;2.33;100.00
36454;BME280;22478;51.740;-1.314;2023-12-29T08:28:15;99271.74;;;3.77;100.00
36454;BME280;22478;51.740;-1.314;2023-12-29T08:30:42;99269.92;;;3.69;100.00
36454;BME280;22478;51.740;-1.314;2023-12-29T08:33:10;99278.06;;;2.30;100.00
36454;BME280;22478;51.740;-1.314;2023-12-29T08:35:37;99277.29;;;3.89;100.00
36454;BME280;22478;51.740;-1.314;2023-12-29T08:38:05;99277.87;;;3.71;100.00
36454;BME280;22478;51.740;-1.314;2023-12-29T08:40:32;99283.08;;;2.83;100.00
36454;BME280;22478;51.740;-1.314;2023-12-29T08:42:59;99286.50;;;2.73;100.00
36454;BME280;22478;51.740;-1.314;2023-12-29T08:45:27;99295.69;;;2.64;100.00
36454;BME280;22478;51.740;-1.314;2023-12-29T08:47:54;99301.20;;;3.08;100.00
36454;BME280;22478;51.740;-1.314;2023-12-29T08:50:21;99296.88;;;3.41;100.00
36454;BME280;22478;51.740;-1.314;2023-12-29T08:52:48;99295.28;;;2.76;100.00
36454;BME280;22478;51.740;-1.314;2023-12-29T08:55:15;99295.17;;;2.76;100.00
36454;BME280;22478;51.740;-1.314;2023-12-29T08:57:42;99294.41;;;3.73;100.00
36454;BME280;22478;51.740;-1.314;2023-12-29T09:00:10;99308.47;;;-0.01;100.00
36454;BME280;22478;51.740;-1.314;2023-12-29T09:02:37;99305.46;;;2.23;100.00
36454;BME280;22478;51.740;-1.314;2023-12-29T09:05:05;99305.23;;;2.90;100.00
36454;BME280;22478;51.740;-1.314;2023-12-29T09:07:32;99310.50;;;4.27;100.00
36454;BME280;22478;51.740;-1.314;2023-12-29T09:09:59;99308.29;;;3.57;100.00
36454;BME280;22478;51.740;-1.314;2023-12-29T09:12:27;99311.00;;;4.26;100.00
36454;BME280;22478;51.740;-1.314;2023-12-29T09:14:54;99316.63;;;3.36;100.00
36454;BME280;22478;51.740;-1.314;2023-12-29T09:17:21;99316.13;;;3.44;100.00
36454;BME280;22478;51.740;-1.314;2023-12-29T09:19:48;99308.72;;;4.36;100.00
36454;BME280;22478;51.740;-1.314;2023-12-29T09:22:15;99319.69;;;4.88;100.00
36454;BME280;22478;51.740;-1.314;2023-12-29T09:24:42;99322.59;;;3.11;100.00
36454;BME280;22478;51.740;-1.314;2023-12-29T09:27:09;99318.76;;;3.86;100.00
36454;BME280;22478;51.740;-1.314;2023-12-29T09:29:37;99317.31;;;4.60;100.00
36454;BME280;22478;51.740;-1.314;2023-12-29T09:32:04;99315.76;;;4.51;100.00
36454;BME280;22478;51.740;-1.314;2023-12-29T09:34:31;99318.05;;;4.33;100.00
36454;BME280;22478;51.740;-1.314;2023-12-29T09:36:59;99329.15;;;1.14;100.00
36454;BME280;22478;51.740;-1.314;2023-12-29T09:39:26;99326.75;;;1.17;100.00
36454;BME280;22478;51.740;-1.314;2023-12-29T09:41:57;99318.81;;;3.35;100.00
36454;BME280;22478;51.740;-1.314;2023-12-29T09:44:25;99313.40;;;3.64;100.00
36454;BME280;22478;51.740;-1.314;2023-12-29T09:46:54;99314.73;;;3.80;100.00
36454;BME280;22478;51.740;-1.314;2023-12-29T09:49:21;99321.67;;;2.73;100.00
36454;BME280;22478;51.740;-1.314;2023-12-29T09:51:50;99330.62;;;2.57;100.00
36454;BME280;22478;51.740;-1.314;2023-12-29T09:54:18;99331.53;;;4.09;100.00
36454;BME280;22478;51.740;-1.314;2023-12-29T09:56:46;99339.54;;;3.67;100.00
36454;BME280;22478;51.740;-1.314;2023-12-29T09:59:14;99337.15;;;4.01;100.00
36454;BME280;22478;51.740;-1.314;2023-12-29T10:01:42;99333.72;;;4.44;100.00
36454;BME280;22478;51.740;-1.314;2023-12-29T10:04:12;99332.06;;;2.73;100.00
36454;BME280;22478;51.740;-1.314;2023-12-29T10:06:42;99321.62;;;5.38;100.00
36454;BME280;22478;51.740;-1.314;2023-12-29T10:09:12;99312.01;;;5.26;100.00
36454;BME280;22478;51.740;-1.314;2023-12-29T10:11:40;99316.50;;;3.58;100.00
36454;BME280;22478;51.740;-1.314;2023-12-29T10:14:22;99322.34;;;3.05;100.00
36454;BME280;22478;51.740;-1.314;2023-12-29T10:16:53;99330.77;;;5.48;100.00
36454;BME280;22478;51.740;-1.314;2023-12-29T10:19:33;99325.50;;;4.78;100.00
36454;BME280;22478;51.740;-1.314;2023-12-29T10:22:11;99327.81;;;5.34;100.00
36454;BME280;22478;51.740;-1.314;2023-12-29T10:24:43;99323.96;;;4.30;100.00
36454;BME280;22478;51.740;-1.314;2023-12-29T10:27:10;99320.62;;;5.26;100.00
36454;BME280;22478;51.740;-1.314;2023-12-29T10:29:37;99318.85;;;4.90;100.00
36454;BME280;22478;51.740;-1.314;2023-12-29T10:32:05;99325.86;;;4.79;100.00
36454;BME280;22478;51.740;-1.314;2023-12-29T10:34:32;99336.26;;;3.98;100.00
36454;BME280;22478;51.740;-1.314;2023-12-29T10:37:00;99338.95;;;3.74;100.00
36454;BME280;22478;51.740;-1.314;2023-12-29T10:39:27;99341.83;;;5.47;100.00
36454;BME280;22478;51.740;-1.314;2023-12-29T10:42:03;99337.46;;;4.51;100.00
36454;BME280;22478;51.740;-1.314;2023-12-29T10:44:31;99327.04;;;6.92;100.00
36454;BME280;22478;51.740;-1.314;2023-12-29T10:47:07;99319.09;;;6.78;100.00
36454;BME280;22478;51.740;-1.314;2023-12-29T10:49:35;99304.81;;;6.57;100.00
36454;BME280;22478;51.740;-1.314;2023-12-29T10:52:11;99309.07;;;6.60;100.00
36454;BME280;22478;51.740;-1.314;2023-12-29T10:54:38;99312.30;;;6.22;100.00
36454;BME280;22478;51.740;-1.314;2023-12-29T10:57:07;99308.06;;;6.29;100.00
36454;BME280;22478;51.740;-1.314;2023-12-29T10:59:34;99309.09;;;4.72;100.00
36454;BME280;22478;51.740;-1.314;2023-12-29T11:02:02;99303.19;;;5.60;100.00
36454;BME280;22478;51.740;-1.314;2023-12-29T11:04:30;99334.45;;;1.02;100.00
36454;BME280;22478;51.740;-1.314;2023-12-29T11:06:57;99324.17;;;0.99;100.00
36454;BME280;22478;51.740;-1.314;2023-12-29T11:09:28;99334.54;;;-1.19;100.00
36454;BME280;22478;51.740;-1.314;2023-12-29T11:11:58;99324.39;;;0.97;100.00
36454;BME280;22478;51.740;-1.314;2023-12-29T11:14:26;99318.02;;;0.56;100.00
36454;BME280;22478;51.740;-1.314;2023-12-29T11:16:54;99310.22;;;2.46;100.00
36454;BME280;22478;51.740;-1.314;2023-12-29T11:19:22;99320.26;;;1.37;100.00
36454;BME280;22478;51.740;-1.314;2023-12-29T11:21:52;99329.45;;;-0.20;100.00
36454;BME280;22478;51.740;-1.314;2023-12-29T11:24:19;99338.61;;;3.30;100.00
36454;BME280;22478;51.740;-1.314;2023-12-29T11:26:49;99344.06;;;4.49;100.00
36454;BME280;22478;51.740;-1.314;2023-12-29T11:29:17;99379.03;;;-1.28;100.00
36454;BME280;22478;51.740;-1.314;2023-12-29T11:31:45;99369.08;;;-1.11;100.00
36454;BME280;22478;51.740;-1.314;2023-12-29T11:34:18;99374.75;;;-1.33;100.00
36454;BME280;22478;51.740;-1.314;2023-12-29T11:36:48;99375.38;;;-0.30;100.00
36454;BME280;22478;51.740;-1.314;2023-12-29T11:39:30;99375.22;;;0.20;100.00
36454;BME280;22478;51.740;-1.314;2023-12-29T11:42:10;99396.04;;;-2.03;100.00
36454;BME280;22478;51.740;-1.314;2023-12-29T11:44:41;99400.16;;;-1.44;100.00
36454;BME280;22478;51.740;-1.314;2023-12-29T11:47:34;99384.07;;;0.23;100.00
36454;BME280;22478;51.740;-1.314;2023-12-29T11:50:02;99386.47;;;-0.53;100.00
36454;BME280;22478;51.740;-1.314;2023-12-29T11:52:34;99380.51;;;-0.08;100.00
36454;BME280;22478;51.740;-1.314;2023-12-29T11:55:10;99373.05;;;-0.69;100.00
36454;BME280;22478;51.740;-1.314;2023-12-29T11:57:38;99368.72;;;0.69;100.00
36454;BME280;22478;51.740;-1.314;2023-12-29T12:00:07;99368.89;;;1.26;100.00
36454;BME280;22478;51.740;-1.314;2023-12-29T12:02:35;99363.34;;;0.68;100.00
36454;BME280;22478;51.740;-1.314;2023-12-29T12:05:04;99367.83;;;-0.41;100.00
36454;BME280;22478;51.740;-1.314;2023-12-29T12:08:03;99348.58;;;-0.08;100.00
36454;BME280;22478;51.740;-1.314;2023-12-29T12:10:31;99336.89;;;0.62;100.00
36454;BME280;22478;51.740;-1.314;2023-12-29T12:12:59;99326.91;;;1.64;100.00
36454;BME280;22478;51.740;-1.314;2023-12-29T12:15:34;99308.98;;;2.73;100.00
36454;BME280;22478;51.740;-1.314;2023-12-29T12:18:03;99300.44;;;4.81;100.00
36454;BME280;22478;51.740;-1.314;2023-12-29T12:20:30;99302.66;;;6.57;100.00
36454;BME280;22478;51.740;-1.314;2023-12-29T12:23:00;99310.65;;;2.51;100.00
36454;BME280;22478;51.740;-1.314;2023-12-29T12:25:30;99302.73;;;4.54;100.00
36454;BME280;22478;51.740;-1.314;2023-12-29T12:27:59;99299.47;;;3.13;100.00
36454;BME280;22478;51.740;-1.314;2023-12-29T12:30:26;99281.03;;;7.41;100.00
36454;BME280;22478;51.740;-1.314;2023-12-29T12:32:59;99285.54;;;8.36;100.00
36454;BME280;22478;51.740;-1.314;2023-12-29T12:35:27;99285.07;;;6.12;100.00
36454;BME280;22478;51.740;-1.314;2023-12-29T12:38:07;99278.72;;;8.64;100.00
36454;BME280;22478;51.740;-1.314;2023-12-29T12:40:35;99279.83;;;8.72;100.00
36454;BME280;22478;51.740;-1.314;2023-12-29T12:43:03;99276.72;;;7.56;89.98
36454;BME280;22478;51.740;-1.314;2023-12-29T12:45:35;99288.52;;;5.34;100.00
36454;BME280;22478;51.740;-1.314;2023-12-29T12:48:13;99286.17;;;5.80;100.00
36454;BME280;22478;51.740;-1.314;2023-12-29T12:50:43;99302.98;;;3.00;100.00
36454;BME280;22478;51.740;-1.314;2023-12-29T12:53:11;99309.81;;;3.20;100.00
36454;BME280;22478;51.740;-1.314;2023-12-29T12:55:39;99323.51;;;3.25;100.00